OIBL  Bandar Lengeh  Airport

Bandar Lengeh, Iran

Add Bookmark
ICAO OIBL
IATA BDH
Type Airport
Status Operational
Latitude
26° 31' 55" N
26.532000
Longitude
54° 49' 29" E
54.824799
Local (GMT +4.5 ) UTC
Jul 24, 2016 03:06 pm Jul 24, 2016 10:36
Sunrise-Sunset Local UTC
Begin Civil Twilight 05:45 am 01:15
Sunrise 06:10 am 01:40
Sunset 07:43 pm 15:13
End Civil Twilight 08:08 pm 15:38
VFR
VFR
MVFR
MVFR
IFR
IFR
LIFR
LIFR
Unknown
Unavailable

Current Weather

METAR Observed MVFR
OIBL 141800Z 00000KT 7000 NSC 35/28 Q0996 Thu, Jul 14, 2016 @ 18:00 UTC
(1 Week, 2 Days, 16 Hours, 36 Minutes ago)
Marginal Visual Flight Rules
Wind Visibility Conditions
Calm 7,001 m
  • No significant weather
Temperatures Readings Precipitation
Current Temp
35°C
95°F
Dewpoint
28°C
82°F
Heat Index
49°C
120°
Humidity 67%
Altimeter 29.41" Hg
Sea Level Pressure 996 mb
Field Elevation
14 m
46 ft
None Recorded

Additional weather within a 92.6km radius of OIBL

Map ICAO Location
OIBS 74.8km S/SW (202°)
OIBA 75.9km S/SE (164°)
VFR
VFR
MVFR
MVFR
IFR
IFR
LIFR
LIFR
Unknown
Unavailable
-
-

CheckWX.com is intended as a tool to help pilots better visualize weather data. It is not intended as a substitute for an official weather briefing obtained from a Flight Service Station. CheckWX.com does not meet the FAA requirements for an official pre-flight weather briefing. Therefore, it's important that pilots still call and obtain an official FSS pre-flight weather briefing.

© 2007-2016 CheckWX.com
10:36:55 UTC